createdAt,value
2018-05-25T00:00:19.916Z,57.70
2018-05-25T00:02:48.123Z,57.70
2018-05-25T00:05:16.319Z,57.80
2018-05-25T00:07:44.510Z,57.70
2018-05-25T00:10:12.711Z,57.70
2018-05-25T00:12:40.918Z,57.70
2018-05-25T00:15:09.123Z,57.70
2018-05-25T00:17:37.315Z,57.70
2018-05-25T00:20:05.516Z,57.70
2018-05-25T00:22:33.726Z,57.70
2018-05-25T00:25:01.931Z,57.70
2018-05-25T00:27:30.126Z,57.70
2018-05-25T00:29:59.094Z,57.70
2018-05-25T00:32:27.290Z,57.60
2018-05-25T00:34:56.271Z,57.70
2018-05-25T00:37:24.461Z,57.60
2018-05-25T00:39:52.675Z,57.60
2018-05-25T00:42:20.878Z,57.70
2018-05-25T00:44:49.075Z,57.70
2018-05-25T00:47:17.283Z,57.70
2018-05-25T00:49:45.497Z,57.70
2018-05-25T00:52:13.688Z,57.70
2018-05-25T00:54:42.699Z,57.80
2018-05-25T00:57:10.923Z,57.60
2018-05-25T00:59:39.125Z,57.80
2018-05-25T01:02:07.334Z,57.80
2018-05-25T01:04:35.543Z,57.60
2018-05-25T01:07:03.736Z,57.70
2018-05-25T01:09:31.922Z,57.80
2018-05-25T01:12:00.891Z,57.80
2018-05-25T01:14:29.102Z,57.70
2018-05-25T01:16:58.082Z,57.90
2018-05-25T01:19:27.042Z,57.80
2018-05-25T01:21:55.295Z,57.80
2018-05-25T01:24:23.494Z,57.70
2018-05-25T01:26:51.698Z,57.80
2018-05-25T01:29:19.918Z,57.80
2018-05-25T01:31:48.131Z,57.90
2018-05-25T01:34:16.418Z,57.90
2018-05-25T01:36:44.626Z,57.90
2018-05-25T01:39:12.867Z,57.90
2018-05-25T01:41:41.242Z,57.90
2018-05-25T01:44:10.203Z,57.90
2018-05-25T01:46:38.407Z,57.80
2018-05-25T01:49:07.392Z,56.70
2018-05-25T01:51:35.582Z,57.90
2018-05-25T01:54:03.814Z,58.00
2018-05-25T01:56:32.022Z,58.00
2018-05-25T01:59:00.219Z,58.00
2018-05-25T02:01:28.423Z,58.00
2018-05-25T02:03:56.622Z,58.00
2018-05-25T02:06:24.890Z,58.00
2018-05-25T02:08:53.088Z,58.00
2018-05-25T02:11:21.278Z,58.10
2018-05-25T02:13:49.474Z,58.10
2018-05-25T02:16:17.686Z,58.00
2018-05-25T02:18:45.889Z,58.10
2018-05-25T02:21:14.087Z,58.10
2018-05-25T02:23:42.282Z,58.00
2018-05-25T02:26:10.482Z,58.20
2018-05-25T02:28:38.861Z,58.10
2018-05-25T02:31:07.076Z,58.10
2018-05-25T02:33:35.279Z,58.10
2018-05-25T02:36:03.500Z,58.10
2018-05-25T02:38:31.668Z,58.10
2018-05-25T02:40:59.866Z,58.10
2018-05-25T02:43:28.157Z,58.20
2018-05-25T02:45:56.353Z,58.20
2018-05-25T02:48:24.555Z,58.20
2018-05-25T02:50:52.747Z,58.10
2018-05-25T02:53:21.712Z,58.20
2018-05-25T02:55:50.106Z,58.10
2018-05-25T02:58:18.305Z,58.10
2018-05-25T03:00:46.509Z,58.20
2018-05-25T03:03:14.703Z,58.10
2018-05-25T03:05:42.903Z,58.20
2018-05-25T03:08:11.117Z,58.30
2018-05-25T03:10:39.368Z,58.30
2018-05-25T03:13:08.340Z,58.30
2018-05-25T03:15:36.569Z,58.30
2018-05-25T03:18:04.762Z,58.20
2018-05-25T03:20:32.963Z,58.30
2018-05-25T03:23:01.934Z,58.70
2018-05-25T03:25:30.219Z,58.30
2018-05-25T03:27:58.418Z,58.30
2018-05-25T03:30:26.610Z,58.20
2018-05-25T03:32:54.823Z,58.30
2018-05-25T03:35:23.023Z,58.30
2018-05-25T03:37:51.223Z,58.50
2018-05-25T03:40:19.427Z,58.50
2018-05-25T03:42:47.624Z,58.50
2018-05-25T03:45:15.826Z,58.40
2018-05-25T03:47:44.076Z,58.40
2018-05-25T03:50:12.266Z,58.30
2018-05-25T03:52:40.467Z,58.40
2018-05-25T03:55:08.667Z,58.30
2018-05-25T03:57:36.880Z,58.30
2018-05-25T04:00:16.816Z,58.30
2018-05-25T04:02:45.037Z,58.20
2018-05-25T04:05:14.038Z,58.20
2018-05-25T04:07:42.229Z,58.20
2018-05-25T04:10:10.422Z,58.10
2018-05-25T04:12:38.650Z,58.10
2018-05-25T04:15:06.860Z,58.10
2018-05-25T04:17:35.066Z,58.00
2018-05-25T04:20:03.262Z,58.00
2018-05-25T04:22:31.466Z,58.00
2018-05-25T04:24:59.666Z,58.00
2018-05-25T04:27:27.871Z,58.00
2018-05-25T04:29:56.855Z,57.90
2018-05-25T04:32:25.047Z,57.80
2018-05-25T04:34:53.248Z,57.90
2018-05-25T04:37:21.463Z,57.90
2018-05-25T04:39:49.657Z,57.80
2018-05-25T04:42:18.627Z,57.70
2018-05-25T04:44:46.842Z,57.70
2018-05-25T04:47:15.034Z,57.80
2018-05-25T04:49:43.230Z,57.70
2018-05-25T04:52:11.425Z,57.60
2018-05-25T04:54:39.639Z,57.70
2018-05-25T04:57:07.959Z,57.60
2018-05-25T04:59:36.161Z,57.60
2018-05-25T05:02:04.380Z,57.60
2018-05-25T05:04:32.592Z,57.60
2018-05-25T05:07:00.810Z,57.50
2018-05-25T05:09:29.023Z,57.50
2018-05-25T05:11:57.322Z,57.30
2018-05-25T05:14:25.524Z,57.10
2018-05-25T05:16:53.738Z,57.40
2018-05-25T05:19:21.955Z,56.90
2018-05-25T05:21:50.166Z,56.90
2018-05-25T05:24:18.369Z,56.80
2018-05-25T05:26:46.560Z,56.70
2018-05-25T05:29:14.759Z,56.50
2018-05-25T05:31:42.964Z,56.40
2018-05-25T05:34:11.155Z,56.40
2018-05-25T05:36:39.353Z,56.20
2018-05-25T05:39:07.559Z,56.20
2018-05-25T05:41:35.766Z,56.10
2018-05-25T05:44:03.974Z,56.00
2018-05-25T05:46:32.182Z,56.60
2018-05-25T05:49:00.414Z,55.90
2018-05-25T05:51:29.398Z,55.90
2018-05-25T05:53:57.793Z,55.90
2018-05-25T05:56:25.970Z,55.90
2018-05-25T05:58:54.573Z,55.90
2018-05-25T06:01:22.793Z,55.70
2018-05-25T06:03:50.999Z,55.90
2018-05-25T06:06:19.199Z,55.90
2018-05-25T06:08:47.443Z,55.90
2018-05-25T06:11:15.599Z,55.90
2018-05-25T06:13:43.806Z,56.70
2018-05-25T06:16:12.005Z,56.10
2018-05-25T06:18:40.197Z,56.10
2018-05-25T06:21:08.427Z,56.20
2018-05-25T06:23:36.639Z,56.10
2018-05-25T06:26:04.840Z,56.10
2018-05-25T06:28:33.081Z,56.40
2018-05-25T06:31:01.998Z,56.80
2018-05-25T06:33:30.203Z,56.70
2018-05-25T06:35:58.407Z,56.90
2018-05-25T06:38:26.624Z,57.10
2018-05-25T06:40:54.842Z,57.00
2018-05-25T06:43:23.047Z,57.00
2018-05-25T06:45:51.263Z,57.10
2018-05-25T06:48:19.467Z,57.10
2018-05-25T06:50:47.723Z,57.20
2018-05-25T06:53:15.866Z,56.80
2018-05-25T06:55:44.070Z,64.60
2018-05-25T06:58:12.307Z,68.90
2018-05-25T07:00:40.514Z,74.90
2018-05-25T07:03:09.513Z,73.60
2018-05-25T07:05:38.474Z,76.80
2018-05-25T07:08:06.676Z,76.80
2018-05-25T07:10:35.652Z,70.80
2018-05-25T07:13:04.371Z,70.70
2018-05-25T07:15:32.578Z,74.40
2018-05-25T07:18:00.788Z,76.70
2018-05-25T07:20:29.754Z,73.50
2018-05-25T07:22:58.046Z,73.40
2018-05-25T07:25:26.250Z,74.90
2018-05-25T07:27:54.475Z,76.50
2018-05-25T07:30:22.679Z,78.50
2018-05-25T07:32:50.888Z,77.20
2018-05-25T07:35:19.108Z,76.80
2018-05-25T07:37:47.323Z,76.40
2018-05-25T07:40:15.531Z,75.10
2018-05-25T07:42:43.764Z,74.60
2018-05-25T07:45:11.962Z,70.30
2018-05-25T07:47:40.180Z,73.10
2018-05-25T07:50:08.379Z,72.70
2018-05-25T07:52:37.362Z,72.70
2018-05-25T07:55:06.331Z,70.40
2018-05-25T07:57:34.534Z,70.20
2018-05-25T08:00:02.764Z,68.70
2018-05-25T08:02:31.010Z,67.40
2018-05-25T08:04:59.211Z,67.10
2018-05-25T08:07:27.413Z,66.10
2018-05-25T08:09:55.615Z,65.00
2018-05-25T08:12:23.842Z,64.90
2018-05-25T08:14:52.047Z,66.60
2018-05-25T08:17:20.254Z,66.60
2018-05-25T08:19:48.462Z,65.40
2018-05-25T08:22:16.662Z,65.10
2018-05-25T08:24:45.639Z,65.70
2018-05-25T08:27:13.846Z,65.70
2018-05-25T08:29:42.096Z,66.30
2018-05-25T08:32:10.473Z,71.40
2018-05-25T08:34:39.671Z,73.40
2018-05-25T08:37:07.878Z,70.40
2018-05-25T08:39:36.118Z,70.10
2018-05-25T08:42:04.303Z,71.10
2018-05-25T08:44:33.295Z,70.70
2018-05-25T08:47:02.274Z,69.50
2018-05-25T08:49:31.281Z,67.80
2018-05-25T08:51:59.475Z,67.80
2018-05-25T08:54:27.709Z,67.90
2018-05-25T08:56:55.906Z,67.50
2018-05-25T08:59:24.113Z,68.10
2018-05-25T09:01:52.336Z,68.10
2018-05-25T09:04:20.583Z,67.50
2018-05-25T09:06:48.819Z,67.90
2018-05-25T09:09:17.016Z,66.30
2018-05-25T09:11:45.214Z,66.40
2018-05-25T09:14:13.449Z,69.20
2018-05-25T09:16:41.650Z,66.90
2018-05-25T09:19:09.904Z,68.30
2018-05-25T09:21:38.123Z,65.60
2018-05-25T09:24:06.348Z,62.60
2018-05-25T09:26:34.531Z,61.20
2018-05-25T09:29:02.747Z,60.20
2018-05-25T09:31:30.959Z,59.60
2018-05-25T09:33:59.155Z,59.20
2018-05-25T09:36:27.368Z,59.00
2018-05-25T09:38:55.580Z,58.70
2018-05-25T09:41:23.775Z,58.50
2018-05-25T09:43:52.007Z,58.70
2018-05-25T09:46:20.988Z,58.60
2018-05-25T09:48:49.241Z,58.40
2018-05-25T09:51:17.439Z,58.30
2018-05-25T09:53:45.671Z,58.30
2018-05-25T09:56:13.902Z,58.20
2018-05-25T09:58:42.107Z,58.20
2018-05-25T10:01:10.346Z,58.00
2018-05-25T10:03:39.319Z,58.00
2018-05-25T10:06:07.537Z,57.90
2018-05-25T10:08:35.754Z,58.30
2018-05-25T10:11:03.956Z,57.60
2018-05-25T10:13:32.204Z,57.40
2018-05-25T10:16:00.416Z,57.20
2018-05-25T10:18:28.638Z,57.30
2018-05-25T10:20:56.863Z,57.30
2018-05-25T10:23:25.087Z,57.20
2018-05-25T10:25:53.421Z,57.10
2018-05-25T10:28:21.647Z,56.90
2018-05-25T10:30:49.847Z,56.80
2018-05-25T10:33:18.891Z,56.80
2018-05-25T10:35:47.099Z,56.70
2018-05-25T10:38:15.315Z,56.50
2018-05-25T10:40:43.581Z,56.60
2018-05-25T10:43:11.788Z,56.70
2018-05-25T10:45:40.065Z,56.90
2018-05-25T10:48:08.373Z,56.60
2018-05-25T10:50:36.556Z,56.70
2018-05-25T10:53:05.548Z,56.60
2018-05-25T10:55:34.535Z,56.60
2018-05-25T10:58:02.738Z,56.50
2018-05-25T11:00:30.978Z,56.90
2018-05-25T11:02:59.952Z,56.40
2018-05-25T11:05:28.182Z,56.20
2018-05-25T11:07:56.390Z,56.00
2018-05-25T11:10:24.599Z,56.10
2018-05-25T11:12:52.841Z,55.80
2018-05-25T11:15:21.119Z,55.80
2018-05-25T11:17:49.483Z,55.70
2018-05-25T11:20:23.344Z,55.30
2018-05-25T11:22:54.632Z,55.40
2018-05-25T11:25:22.922Z,55.40
2018-05-25T11:27:51.206Z,55.50
2018-05-25T11:30:19.411Z,55.70
2018-05-25T11:32:47.660Z,55.60
2018-05-25T11:35:15.883Z,55.40
2018-05-25T11:37:44.881Z,55.40
2018-05-25T11:40:13.110Z,55.30
2018-05-25T11:42:41.361Z,55.30
2018-05-25T11:45:10.112Z,55.10
2018-05-25T11:47:38.521Z,54.50
2018-05-25T11:50:06.849Z,54.60
2018-05-25T11:52:35.084Z,54.80
2018-05-25T11:55:03.295Z,54.60
2018-05-25T11:57:32.288Z,54.60
2018-05-25T12:00:00.548Z,54.50
2018-05-25T12:02:28.867Z,54.50
2018-05-25T12:04:57.823Z,54.70
2018-05-25T12:07:26.060Z,54.30
2018-05-25T12:09:54.911Z,54.80
2018-05-25T12:12:23.121Z,54.70
2018-05-25T12:14:51.547Z,54.60
2018-05-25T12:17:19.742Z,54.90
2018-05-25T12:19:47.999Z,53.50
2018-05-25T12:22:16.205Z,55.80
2018-05-25T12:24:44.408Z,53.90
2018-05-25T12:27:12.606Z,53.80
2018-05-25T12:29:40.835Z,55.90
2018-05-25T12:32:09.046Z,55.20
2018-05-25T12:34:37.258Z,56.10
2018-05-25T12:37:05.471Z,54.80
2018-05-25T12:39:33.675Z,55.10
2018-05-25T12:42:01.891Z,54.50
2018-05-25T12:44:30.110Z,53.40
2018-05-25T12:46:58.311Z,53.30
2018-05-25T12:49:26.519Z,54.80
2018-05-25T12:51:54.732Z,54.00
2018-05-25T12:54:23.717Z,53.50
2018-05-25T12:56:51.930Z,53.40
2018-05-25T12:59:20.138Z,54.10
2018-05-25T13:01:48.363Z,53.10
2018-05-25T13:04:16.618Z,52.80
2018-05-25T13:06:44.790Z,53.60
2018-05-25T13:09:13.023Z,52.90
2018-05-25T13:11:41.341Z,55.60
2018-05-25T13:14:09.513Z,55.60
2018-05-25T13:16:37.717Z,55.20
2018-05-25T13:19:05.964Z,53.80
2018-05-25T13:21:34.942Z,53.50
2018-05-25T13:24:03.168Z,53.50
2018-05-25T13:26:31.418Z,54.40
2018-05-25T13:28:59.604Z,52.90
2018-05-25T13:31:27.811Z,53.00
2018-05-25T13:33:56.031Z,52.20
2018-05-25T13:36:24.237Z,54.10
2018-05-25T13:38:52.447Z,53.50
2018-05-25T13:41:20.665Z,52.70
2018-05-25T13:43:48.875Z,53.30
2018-05-25T13:46:17.098Z,51.80
2018-05-25T13:48:45.310Z,55.40
2018-05-25T13:51:13.521Z,55.30
2018-05-25T13:53:41.727Z,53.30
2018-05-25T13:56:10.706Z,52.80
2018-05-25T13:58:38.922Z,52.70
2018-05-25T14:01:07.126Z,53.10
2018-05-25T14:03:35.339Z,53.20
2018-05-25T14:06:03.626Z,53.20
2018-05-25T14:08:31.775Z,53.60
2018-05-25T14:11:00.053Z,52.90
2018-05-25T14:13:28.273Z,53.60
2018-05-25T14:15:56.478Z,51.40
2018-05-25T14:18:24.690Z,52.10
2018-05-25T14:20:52.902Z,51.30
2018-05-25T14:23:21.123Z,52.20
2018-05-25T14:25:50.100Z,51.30
2018-05-25T14:28:18.315Z,51.30
2018-05-25T14:30:46.519Z,53.00
2018-05-25T14:33:14.726Z,54.00
2018-05-25T14:35:42.947Z,53.00
2018-05-25T14:38:11.174Z,54.10
2018-05-25T14:40:39.395Z,52.80
2018-05-25T14:43:07.615Z,53.00
2018-05-25T14:45:35.828Z,52.70
2018-05-25T14:48:04.050Z,51.90
2018-05-25T14:50:32.263Z,51.90
2018-05-25T14:53:00.474Z,53.60
2018-05-25T14:55:28.692Z,52.70
2018-05-25T14:57:56.919Z,53.30
2018-05-25T15:00:25.151Z,52.00
2018-05-25T15:02:54.137Z,52.90
2018-05-25T15:05:23.112Z,53.50
2018-05-25T15:07:51.314Z,53.20
2018-05-25T15:10:19.522Z,52.90
2018-05-25T15:12:47.779Z,52.80
2018-05-25T15:15:15.984Z,52.40
2018-05-25T15:17:44.202Z,52.80
2018-05-25T15:20:15.987Z,51.30
2018-05-25T15:22:44.207Z,51.10
2018-05-25T15:25:12.410Z,51.50
2018-05-25T15:27:40.622Z,52.90
2018-05-25T15:30:08.831Z,52.90
2018-05-25T15:32:37.238Z,54.00
2018-05-25T15:35:05.319Z,54.50
2018-05-25T15:37:33.563Z,52.20
2018-05-25T15:40:01.799Z,52.50
2018-05-25T15:42:30.000Z,51.70
2018-05-25T15:44:58.233Z,52.70
2018-05-25T15:47:27.170Z,52.00
2018-05-25T15:49:55.396Z,52.00
2018-05-25T15:52:23.619Z,55.90
2018-05-25T15:54:51.851Z,57.30
2018-05-25T15:57:20.126Z,58.10
2018-05-25T15:59:48.350Z,58.60
2018-05-25T16:02:16.711Z,58.80
2018-05-25T16:04:44.863Z,59.30
2018-05-25T16:07:13.080Z,59.70
2018-05-25T16:09:41.302Z,61.50
2018-05-25T16:12:09.643Z,62.50
2018-05-25T16:14:38.636Z,64.20
2018-05-25T16:17:07.619Z,64.20
2018-05-25T16:19:35.838Z,64.20
2018-05-25T16:22:04.055Z,63.80
2018-05-25T16:24:32.263Z,64.00
2018-05-25T16:27:00.486Z,64.10
2018-05-25T16:29:28.695Z,63.70
2018-05-25T16:31:56.910Z,63.80
2018-05-25T16:34:25.166Z,64.50
2018-05-25T16:36:53.364Z,64.00
2018-05-25T16:39:21.568Z,65.40
2018-05-25T16:41:49.787Z,64.50
2018-05-25T16:44:18.038Z,65.10
2018-05-25T16:46:47.023Z,65.10
2018-05-25T16:49:15.246Z,65.00
2018-05-25T16:51:44.267Z,60.90
2018-05-25T16:54:12.468Z,60.90
2018-05-25T16:56:40.675Z,59.40
2018-05-25T16:59:08.886Z,59.70
2018-05-25T17:01:37.095Z,60.60
2018-05-25T17:04:05.942Z,64.30
2018-05-25T17:06:34.155Z,65.60
2018-05-25T17:09:02.369Z,64.30
2018-05-25T17:11:30.587Z,65.50
2018-05-25T17:13:58.822Z,65.60
2018-05-25T17:16:27.047Z,65.50
2018-05-25T17:18:55.260Z,64.10
2018-05-25T17:21:23.466Z,58.40
2018-05-25T17:23:51.673Z,58.00
2018-05-25T17:26:20.694Z,57.90
2018-05-25T17:28:48.903Z,57.90
2018-05-25T17:31:17.123Z,56.60
2018-05-25T17:33:45.335Z,57.60
2018-05-25T17:36:13.539Z,58.40
2018-05-25T17:38:41.743Z,59.30
2018-05-25T17:41:09.950Z,58.60
2018-05-25T17:43:38.154Z,59.30
2018-05-25T17:46:06.372Z,60.40
2018-05-25T17:48:34.589Z,62.80
2018-05-25T17:51:02.801Z,63.00
2018-05-25T17:53:31.007Z,64.70
2018-05-25T17:55:59.226Z,64.60
2018-05-25T17:58:27.466Z,63.20
2018-05-25T18:00:55.689Z,63.40
2018-05-25T18:03:23.864Z,64.60
2018-05-25T18:05:52.839Z,66.00
2018-05-25T18:08:21.047Z,66.00
2018-05-25T18:10:49.296Z,67.70
2018-05-25T18:13:17.504Z,68.40
2018-05-25T18:15:45.731Z,69.10
2018-05-25T18:18:13.947Z,69.40
2018-05-25T18:20:42.160Z,68.10
2018-05-25T18:23:10.370Z,67.80
2018-05-25T18:25:38.576Z,67.40
2018-05-25T18:28:06.782Z,68.80
2018-05-25T18:30:35.015Z,68.70
2018-05-25T18:33:03.223Z,68.40
2018-05-25T18:35:31.431Z,68.90
2018-05-25T18:37:59.644Z,67.60
2018-05-25T18:40:27.846Z,70.10
2018-05-25T18:42:56.066Z,70.50
2018-05-25T18:45:25.058Z,71.80
2018-05-25T18:47:54.051Z,73.80
2018-05-25T18:50:22.270Z,73.70
2018-05-25T18:52:50.494Z,73.20
2018-05-25T18:55:18.728Z,74.10
2018-05-25T18:57:46.962Z,75.70
2018-05-25T19:00:15.206Z,76.40
2018-05-25T19:02:43.419Z,77.40
2018-05-25T19:05:11.640Z,77.70
2018-05-25T19:07:39.855Z,78.30
2018-05-25T19:10:08.065Z,77.90
2018-05-25T19:12:36.271Z,79.10
2018-05-25T19:15:04.663Z,79.50
2018-05-25T19:17:32.867Z,80.10
2018-05-25T19:20:01.096Z,80.60
2018-05-25T19:22:29.311Z,80.30
2018-05-25T19:24:57.518Z,81.10
2018-05-25T19:27:25.734Z,81.90
2018-05-25T19:29:53.940Z,81.20
2018-05-25T19:32:22.213Z,81.30
2018-05-25T19:34:50.398Z,82.60
2018-05-25T19:37:18.613Z,83.40
2018-05-25T19:39:46.874Z,75.50
2018-05-25T19:42:15.874Z,71.00
2018-05-25T19:44:44.075Z,69.30
2018-05-25T19:47:12.287Z,68.40
2018-05-25T19:49:40.507Z,67.70
2018-05-25T19:52:08.737Z,67.60
2018-05-25T19:54:37.828Z,67.70
2018-05-25T19:57:06.792Z,67.50
2018-05-25T19:59:35.105Z,67.60
2018-05-25T20:02:03.702Z,67.50
2018-05-25T20:04:31.980Z,67.80
2018-05-25T20:07:00.309Z,69.60
2018-05-25T20:09:28.627Z,67.90
2018-05-25T20:11:56.928Z,67.50
2018-05-25T20:14:25.317Z,67.30
2018-05-25T20:16:53.667Z,66.80
2018-05-25T20:19:21.883Z,66.80
2018-05-25T20:21:50.139Z,66.70
2018-05-25T20:24:18.433Z,66.70
2018-05-25T20:26:47.404Z,66.70
2018-05-25T20:29:15.660Z,66.60
2018-05-25T20:31:45.689Z,66.60
2018-05-25T20:34:14.046Z,66.60
2018-05-25T20:36:42.404Z,66.70
2018-05-25T20:39:10.774Z,66.40
2018-05-25T20:41:39.667Z,66.20
2018-05-25T20:44:09.257Z,66.40
2018-05-25T20:46:37.557Z,66.20
2018-05-25T20:49:05.922Z,66.20
2018-05-25T20:51:34.928Z,66.20
2018-05-25T20:54:03.231Z,66.00
2018-05-25T20:56:31.472Z,66.10
2018-05-25T20:58:59.721Z,66.00
2018-05-25T21:01:27.961Z,66.10
2018-05-25T21:03:56.188Z,66.00
2018-05-25T21:06:24.467Z,66.00
2018-05-25T21:08:52.740Z,66.00
2018-05-25T21:11:21.026Z,66.00
2018-05-25T21:13:49.254Z,65.90
2018-05-25T21:16:52.145Z,65.90
2018-05-25T21:19:20.726Z,66.20
2018-05-25T21:21:49.761Z,66.50
2018-05-25T21:24:21.355Z,66.20
2018-05-25T21:26:49.579Z,66.40
2018-05-25T21:29:17.802Z,66.40
2018-05-25T21:31:46.042Z,66.40
2018-05-25T21:34:14.280Z,66.20
2018-05-25T21:36:43.405Z,66.50
2018-05-25T21:39:11.691Z,66.20
2018-05-25T21:41:39.957Z,66.20
2018-05-25T21:44:08.528Z,66.40
2018-05-25T21:46:36.834Z,66.10
2018-05-25T21:49:05.067Z,66.40
2018-05-25T21:51:33.414Z,66.20
2018-05-25T21:54:01.631Z,66.10
2018-05-25T21:56:29.903Z,66.20
2018-05-25T21:58:58.152Z,66.10
2018-05-25T22:01:26.479Z,65.80
2018-05-25T22:03:55.537Z,65.70
2018-05-25T22:06:23.784Z,65.90
2018-05-25T22:08:52.104Z,65.80
2018-05-25T22:18:50.519Z,65.70
2018-05-25T22:21:18.740Z,65.70
2018-05-25T22:23:48.098Z,65.70
2018-05-25T22:26:16.299Z,65.80
2018-05-25T22:28:44.515Z,65.70
2018-05-25T22:31:13.519Z,65.60
2018-05-25T22:33:41.723Z,65.40
2018-05-25T22:36:09.940Z,65.50
2018-05-25T22:38:38.181Z,65.60
2018-05-25T22:41:06.427Z,65.50
2018-05-25T22:43:46.375Z,65.50
2018-05-25T22:46:32.359Z,65.70
2018-05-25T22:49:18.489Z,65.60
2018-05-25T22:52:04.448Z,65.50
2018-05-25T22:54:42.336Z,65.30
2018-05-25T22:57:10.691Z,65.40
2018-05-25T22:59:39.056Z,65.20
2018-05-25T23:02:07.279Z,65.00
2018-05-25T23:04:35.579Z,65.20
2018-05-25T23:07:03.822Z,65.40
2018-05-25T23:09:32.795Z,65.40
2018-05-25T23:12:01.834Z,65.20
2018-05-25T23:14:30.087Z,65.00
2018-05-25T23:16:58.461Z,65.10
2018-05-25T23:19:27.488Z,65.30
2018-05-25T23:21:55.672Z,65.10
2018-05-25T23:24:23.899Z,65.20
2018-05-25T23:26:52.187Z,65.30
2018-05-25T23:29:20.384Z,65.20
2018-05-25T23:31:48.583Z,65.20
2018-05-25T23:34:16.795Z,65.10
2018-05-25T23:36:45.762Z,65.10
2018-05-25T23:39:14.741Z,65.10
2018-05-25T23:41:42.947Z,65.00
2018-05-25T23:44:11.159Z,64.90
2018-05-25T23:46:39.419Z,64.80
2018-05-25T23:49:07.628Z,64.80
2018-05-25T23:51:35.850Z,64.70
2018-05-25T23:54:04.799Z,64.70
2018-05-25T23:56:33.007Z,64.70
2018-05-25T23:59:01.201Z,64.60
